Terminal Aerodrome Forecast
Issued by NWS Denver/Boulder, CO

Home | Current Version | Previous Version | Text Only | Print | Product List | Glossary On
Versions: 1 2 3 4 5 6 7 8 9 10 11 12 13 14 15 16 17 18 19 20 21 22 23 24 25 26 27 28 29 30 31 32 33 34 35 36 37 38 39 40 41 42 43 44 45 46 47 48 49 50
000
FTUS45 KBOU 162050 AAA
TAFDEN
TAF AMD
KDEN 162050Z 1621/1724 33005KT P6SM SCT090 BKN110 BKN200
     FM170000 10006KT P6SM SCT060 BKN080 OVC120
     FM170500 23007KT P6SM FEW080 BKN140
     FM171700 VRB05KT P6SM BKN080 OVC120
     FM171900 03007KT P6SM SCT020 OVC080 PROB30 1720/1724 2SM -SN BR
      BKN020=

USA.gov is the U.S. government's official web portal to all federal, state and local government web resources and services.